< < Back
Terminal Aerodrome Forecast


Current Version              Previous Versions:   1  2  3  4  5  6  7  8  9  

Terminal Aerodrome Forecast

809
FTUS42 KJAX 282320
TAFSSI
TAF
KSSI 282320Z 2900/2924 15008KT P6SM VCSH SCT040
     FM290300 21008KT P6SM BKN250
     FM290700 24005KT P6SM SCT250
     FM291700 18008KT P6SM FEW030 SCT250=

Latest METAR

931
SAUS70 KWBC 290100 RRQ
MTRSSI
METAR KSSI 290053Z AUTO 18007KT 10SM CLR 29/26 A2993 RMK AO2 SLP135
T02890261


USA.gov is the U.S. government's official web portal to all federal, state and local government web resources and services.